Time;durP1;ratioP1;P1;durP2;ratioP2;P2;SDS_P1;SDS_P2;PMS_P1;PMS_P2;Temp;Humidity;BMP_temperature;BMP_pressure;BME280_temperature;BME280_humidity;BME280_pressure;Samples;Min_cycle;Max_cycle;Signal;HPM_P1;HPM_P2
2022/12/30 00:00:45;;;;;;;3.00;1.10;;;7.00;99.90;;;;;;4171065;28;20476;-80
2022/12/30 00:02:47;;;;;;;4.17;1.23;;;7.00;99.90;;;;;;4171396;28;20525;-80
2022/12/30 00:04:49;;;;;;;3.77;1.20;;;7.00;99.90;;;;;;4170483;28;20461;-80
2022/12/30 00:06:51;;;;;;;3.03;0.97;;;7.00;99.90;;;;;;4170538;28;20484;-80
2022/12/30 00:08:56;;;;;;;2.77;0.90;;;7.00;99.90;;;;;;4151754;28;20826;-79
2022/12/30 00:10:59;;;;;;;3.27;1.10;;;7.00;99.90;;;;;;4165013;28;20443;-79
2022/12/30 00:34:29;;;;;;;3.30;0.97;;;7.30;99.90;;;;;;4174073;28;20447;-80
2022/12/30 00:36:32;;;;;;;5.87;1.30;;;7.30;99.90;;;;;;4172522;28;20456;-80
2022/12/30 00:38:34;;;;;;;3.43;0.93;;;7.30;99.90;;;;;;4168123;28;21006;-80
2022/12/30 00:40:36;;;;;;;6.70;1.10;;;7.30;99.90;;;;;;4173258;28;20515;-79
2022/12/30 00:44:58;;;;;;;6.60;1.27;;;7.30;99.90;;;;;;4149595;28;20545;-80
2022/12/30 00:47:01;;;;;;;6.30;1.10;;;7.30;99.90;;;;;;4171977;28;20504;-80
2022/12/30 00:56:11;;;;;;;3.67;0.87;;;7.30;99.90;;;;;;4168959;28;20448;-80
2022/12/30 00:58:14;;;;;;;3.97;1.10;;;7.30;99.90;;;;;;4178884;28;20480;-80
2022/12/30 01:00:16;;;;;;;3.40;1.03;;;7.60;99.90;;;;;;4179810;28;20456;-80
2022/12/30 01:02:18;;;;;;;5.87;1.50;;;7.30;99.90;;;;;;4179125;28;20453;-80
2022/12/30 01:04:20;;;;;;;10.33;1.50;;;7.30;99.90;;;;;;4174334;28;20457;-80
2022/12/30 01:06:22;;;;;;;9.07;1.33;;;7.30;99.90;;;;;;4162749;28;20488;-79
2022/12/30 01:08:24;;;;;;;7.20;1.10;;;7.40;99.90;;;;;;4175290;28;20472;-80
2022/12/30 01:10:26;;;;;;;7.47;1.10;;;7.30;99.90;;;;;;4155024;28;20454;-79
2022/12/30 01:12:30;;;;;;;5.07;1.00;;;7.30;99.90;;;;;;4160396;28;20564;-80
2022/12/30 01:14:33;;;;;;;6.20;1.23;;;7.40;99.90;;;;;;4174138;28;20482;-80
2022/12/30 01:16:35;;;;;;;3.67;1.10;;;7.40;99.90;;;;;;4152530;28;20446;-80
2022/12/30 01:18:38;;;;;;;4.97;1.67;;;7.30;99.90;;;;;;4177564;28;20575;-80
2022/12/30 01:20:40;;;;;;;6.80;1.23;;;7.40;99.90;;;;;;4177341;28;20545;-80
2022/12/30 01:22:42;;;;;;;5.67;1.07;;;7.30;99.90;;;;;;4180484;28;20526;-80
2022/12/30 01:24:44;;;;;;;3.60;1.13;;;7.40;99.90;;;;;;4175149;28;20541;-80
2022/12/30 01:26:46;;;;;;;3.13;1.20;;;7.30;99.90;;;;;;4182779;28;20511;-80
2022/12/30 01:28:47;;;;;;;3.03;1.00;;;7.30;99.90;;;;;;4164763;28;20477;-80
2022/12/30 01:30:51;;;;;;;4.50;0.93;;;7.30;99.90;;;;;;4179960;28;20448;-80
2022/12/30 01:32:53;;;;;;;2.37;0.80;;;7.40;99.90;;;;;;4181414;28;20578;-80
2022/12/30 01:34:55;;;;;;;6.03;0.90;;;7.40;99.90;;;;;;4173039;28;20530;-80
2022/12/30 01:36:57;;;;;;;8.07;1.23;;;7.40;99.90;;;;;;4180357;28;20504;-80
2022/12/30 01:38:59;;;;;;;7.80;1.33;;;7.70;99.90;;;;;;4174786;28;20477;-80
2022/12/30 01:41:01;;;;;;;7.67;1.20;;;7.40;99.90;;;;;;4175961;28;20610;-80
2022/12/30 01:43:03;;;;;;;9.40;1.30;;;7.40;99.90;;;;;;4173893;28;20471;-79
2022/12/30 01:45:13;;;;;;;3.23;0.97;;;7.40;99.90;;;;;;4181323;28;20559;-80
2022/12/30 01:47:19;;;;;;;4.77;0.90;;;7.40;99.90;;;;;;4166325;28;20492;-80
2022/12/30 01:49:21;;;;;;;6.00;1.20;;;7.40;99.90;;;;;;4175083;28;20519;-80
2022/12/30 01:51:29;;;;;;;7.13;1.40;;;7.30;99.90;;;;;;4178309;28;20461;-80
2022/12/30 01:53:34;;;;;;;7.33;1.30;;;7.30;99.90;;;;;;4172803;28;20568;-79
2022/12/30 01:55:40;;;;;;;3.83;1.10;;;7.30;99.90;;;;;;4176384;28;20552;-80
2022/12/30 01:57:45;;;;;;;4.13;1.17;;;7.30;99.90;;;;;;4173430;28;20517;-80
2022/12/30 01:59:48;;;;;;;2.63;1.10;;;7.20;99.90;;;;;;4167962;28;20519;-79
2022/12/30 02:01:50;;;;;;;4.57;1.00;;;7.30;99.90;;;;;;4175388;28;20483;-80
2022/12/30 02:04:00;;;;;;;5.47;1.00;;;7.30;99.90;;;;;;4179350;28;20475;-80
2022/12/30 02:06:04;;;;;;;5.87;1.10;;;7.30;99.90;;;;;;4169085;28;20472;-79
2022/12/30 02:08:10;;;;;;;8.47;1.57;;;7.20;99.90;;;;;;4175723;28;20460;-80
2022/12/30 02:10:13;;;;;;;6.00;1.27;;;7.20;99.90;;;;;;4177878;28;20507;-80
2022/12/30 02:12:15;;;;;;;4.33;1.13;;;7.20;99.90;;;;;;4176753;28;20467;-80
2022/12/30 02:14:17;;;;;;;10.00;1.03;;;7.20;99.90;;;;;;4180107;28;22526;-80
2022/12/30 02:16:37;;;;;;;7.30;1.00;;;7.20;99.90;;;;;;4175875;28;20448;-79
2022/12/30 02:18:53;;;;;;;2.50;0.90;;;7.20;99.90;;;;;;4176961;28;20499;-80
2022/12/30 02:21:37;;;;;;;6.23;1.30;;;7.10;99.90;;;;;;4176942;28;20583;-80
2022/12/30 02:24:10;;;;;;;6.53;1.13;;;7.10;99.90;;;;;;4176630;28;20554;-80
2022/12/30 02:26:34;;;;;;;4.87;1.03;;;7.10;99.90;;;;;;4175935;28;20546;-80
2022/12/30 02:29:07;;;;;;;6.77;1.30;;;7.10;99.90;;;;;;4170572;28;20488;-80
2022/12/30 02:31:31;;;;;;;5.00;0.90;;;7.00;99.90;;;;;;4155713;28;20603;-80
2022/12/30 02:33:40;;;;;;;8.33;2.10;;;7.00;99.90;;;;;;4178256;28;21013;-80
2022/12/30 02:35:54;;;;;;;7.43;1.13;;;7.00;99.90;;;;;;4177753;28;20889;-79
2022/12/30 02:38:17;;;;;;;6.47;1.17;;;7.00;99.90;;;;;;4172640;28;20460;-79
2022/12/30 02:40:25;;;;;;;6.67;1.53;;;7.00;99.90;;;;;;4178589;28;20516;-79
2022/12/30 02:45:00;;;;;;;8.63;1.37;;;7.00;99.90;;;;;;4171390;28;20517;-80
2022/12/30 02:47:09;;;;;;;10.73;1.80;;;7.00;99.90;;;;;;4171254;28;20460;-80
2022/12/30 02:49:13;;;;;;;10.33;1.30;;;7.00;99.90;;;;;;4174692;28;20524;-80
2022/12/30 02:53:40;;;;;;;2.67;0.93;;;6.90;99.90;;;;;;4175944;28;20456;-80
2022/12/30 02:55:42;;;;;;;5.30;1.20;;;6.90;99.90;;;;;;4176443;28;20555;-79
2022/12/30 02:57:44;;;;;;;4.90;1.50;;;6.90;99.90;;;;;;4168197;28;20548;-80
2022/12/30 03:04:54;;;;;;;5.83;1.17;;;6.90;99.90;;;;;;4170424;28;21076;-79
2022/12/30 03:07:12;;;;;;;6.57;1.43;;;6.80;99.90;;;;;;4170495;28;20526;-80
2022/12/30 03:09:23;;;;;;;7.07;1.13;;;6.80;99.90;;;;;;4155884;28;20478;-79
2022/12/30 03:11:29;;;;;;;5.93;1.40;;;6.80;99.90;;;;;;4175669;28;20997;-80
2022/12/30 03:13:37;;;;;;;4.87;1.20;;;6.80;99.90;;;;;;4158042;28;20488;-80
2022/12/30 03:15:45;;;;;;;8.80;1.33;;;6.80;99.90;;;;;;4176652;28;20451;-80
2022/12/30 03:17:49;;;;;;;3.83;1.20;;;6.80;99.90;;;;;;4157114;28;20601;-80
2022/12/30 03:19:56;;;;;;;4.57;1.20;;;6.80;99.90;;;;;;4160921;28;20973;-80
2022/12/30 03:22:00;;;;;;;8.30;1.30;;;6.80;99.90;;;;;;4172784;28;20484;-79
2022/12/30 03:28:49;;;;;;;5.33;1.30;;;6.80;99.90;;;;;;4169930;28;20920;-79
2022/12/30 03:30:58;;;;;;;6.13;1.27;;;6.80;99.90;;;;;;4159341;28;20469;-79
2022/12/30 03:33:02;;;;;;;8.17;1.57;;;6.80;99.90;;;;;;4154378;28;20460;-79
2022/12/30 03:35:04;;;;;;;6.10;1.17;;;6.80;99.90;;;;;;4179705;28;20459;-79
2022/12/30 03:37:14;;;;;;;8.53;1.43;;;6.80;99.90;;;;;;4176282;28;20479;-79
2022/12/30 03:39:20;;;;;;;5.57;1.23;;;6.80;99.90;;;;;;4172129;28;20483;-79
2022/12/30 03:41:23;;;;;;;7.30;1.20;;;6.70;99.90;;;;;;4171581;28;21009;-80
2022/12/30 03:43:28;;;;;;;6.97;1.33;;;6.70;99.90;;;;;;4173466;28;20467;-79
2022/12/30 03:45:30;;;;;;;4.93;1.20;;;6.70;99.90;;;;;;4168503;28;20551;-79
2022/12/30 03:47:32;;;;;;;10.37;1.40;;;6.70;99.90;;;;;;4171745;28;21036;-79
2022/12/30 03:49:38;;;;;;;8.43;1.60;;;6.70;99.90;;;;;;4165336;28;20921;-79
2022/12/30 03:51:42;;;;;;;6.77;1.10;;;6.60;99.90;;;;;;4176516;28;20476;-80
2022/12/30 03:53:44;;;;;;;6.67;1.33;;;6.70;99.90;;;;;;4170860;28;20455;-79
2022/12/30 03:55:46;;;;;;;6.50;1.10;;;6.60;99.90;;;;;;4174673;28;20448;-80
2022/12/30 03:57:48;;;;;;;6.63;1.40;;;6.60;99.90;;;;;;4172663;28;20448;-80
2022/12/30 03:59:50;;;;;;;3.73;1.07;;;6.60;99.90;;;;;;4165035;28;20472;-79
2022/12/30 04:01:52;;;;;;;9.60;1.23;;;6.60;99.90;;;;;;4170973;28;20534;-79
2022/12/30 04:03:54;;;;;;;6.93;1.20;;;6.60;99.90;;;;;;4150120;28;20448;-80
2022/12/30 04:05:59;;;;;;;5.80;1.07;;;6.50;99.90;;;;;;4174107;28;20504;-79
2022/12/30 04:08:01;;;;;;;5.80;1.17;;;6.50;99.90;;;;;;4153522;28;20454;-80
2022/12/30 04:10:04;;;;;;;9.80;1.17;;;6.50;99.90;;;;;;4170033;28;20464;-80
2022/12/30 04:12:06;;;;;;;7.73;1.20;;;6.50;99.90;;;;;;4157011;28;20516;-80
2022/12/30 04:14:08;;;;;;;7.17;1.10;;;6.40;99.90;;;;;;4178825;28;20490;-80
2022/12/30 04:16:10;;;;;;;5.40;1.60;;;6.40;99.90;;;;;;4171519;28;20455;-79
2022/12/30 04:18:12;;;;;;;8.20;1.27;;;6.40;99.90;;;;;;4176070;28;20475;-79
2022/12/30 04:20:16;;;;;;;5.83;1.10;;;6.40;99.90;;;;;;4157756;28;20469;-79
2022/12/30 04:22:19;;;;;;;8.37;1.60;;;6.40;99.90;;;;;;4170724;28;20579;-79
2022/12/30 04:24:21;;;;;;;6.13;1.27;;;6.40;99.90;;;;;;4167327;28;20491;-79
2022/12/30 04:26:23;;;;;;;3.43;1.00;;;6.40;99.90;;;;;;4159140;28;20451;-79
2022/12/30 04:28:25;;;;;;;5.33;1.20;;;6.40;99.90;;;;;;4176874;28;20517;-79
2022/12/30 04:30:27;;;;;;;7.07;1.37;;;6.40;99.90;;;;;;4174942;28;20462;-79
2022/12/30 04:32:29;;;;;;;7.80;1.40;;;6.40;99.90;;;;;;4168589;28;20518;-80
2022/12/30 04:34:31;;;;;;;6.93;1.17;;;6.30;99.90;;;;;;4177204;28;20526;-79
2022/12/30 04:36:33;;;;;;;5.63;1.40;;;6.30;99.90;;;;;;4166020;28;20465;-80
2022/12/30 04:38:36;;;;;;;6.17;1.40;;;6.30;99.90;;;;;;4151881;28;20904;-80
2022/12/30 04:40:38;;;;;;;6.73;1.23;;;6.30;99.90;;;;;;4175041;28;20474;-80
2022/12/30 04:42:40;;;;;;;10.50;1.50;;;6.30;99.90;;;;;;4171763;28;20496;-80
2022/12/30 04:44:42;;;;;;;5.93;1.10;;;6.30;99.90;;;;;;4175264;28;20468;-80
2022/12/30 04:46:44;;;;;;;6.00;1.43;;;6.20;99.90;;;;;;4178090;28;21015;-80
2022/12/30 04:48:46;;;;;;;7.77;1.00;;;6.20;99.90;;;;;;4177904;28;20469;-80
2022/12/30 04:50:49;;;;;;;6.67;1.10;;;6.30;99.90;;;;;;4171962;28;20486;-80
2022/12/30 04:52:51;;;;;;;3.97;0.90;;;6.30;99.90;;;;;;4154519;28;20460;-81
2022/12/30 04:54:54;;;;;;;6.07;1.00;;;6.20;99.90;;;;;;4176966;28;20466;-80
2022/12/30 04:56:56;;;;;;;4.03;1.30;;;6.30;99.90;;;;;;4160765;28;20461;-80
2022/12/30 04:58:58;;;;;;;4.37;0.73;;;6.30;99.90;;;;;;4183120;28;20502;-80
2022/12/30 05:01:00;;;;;;;6.73;1.63;;;6.30;99.90;;;;;;4165877;28;20461;-80
2022/12/30 05:03:02;;;;;;;7.17;1.23;;;6.20;99.90;;;;;;4164156;28;20496;-80
2022/12/30 05:05:04;;;;;;;6.33;1.10;;;6.20;99.90;;;;;;4170317;28;20448;-80
2022/12/30 05:07:06;;;;;;;5.63;1.27;;;6.20;99.90;;;;;;4172396;28;20905;-80
2022/12/30 05:09:08;;;;;;;5.83;1.40;;;6.30;99.90;;;;;;4172432;28;20476;-80
2022/12/30 05:11:12;;;;;;;11.03;1.40;;;6.20;99.90;;;;;;4171530;28;20806;-80
2022/12/30 05:13:13;;;;;;;6.80;1.03;;;6.20;99.90;;;;;;4157105;28;20569;-80
2022/12/30 05:15:17;;;;;;;6.70;0.83;;;6.20;99.90;;;;;;4176507;28;20505;-80
2022/12/30 05:17:19;;;;;;;4.10;1.17;;;6.20;99.90;;;;;;4175709;28;20456;-80
2022/12/30 05:19:21;;;;;;;3.67;1.10;;;6.20;99.90;;;;;;4165720;28;20486;-80
2022/12/30 05:21:23;;;;;;;5.77;1.10;;;6.10;99.90;;;;;;4168427;28;20467;-80
2022/12/30 05:28:05;;;;;;;6.10;1.27;;;6.10;99.90;;;;;;4160131;28;20455;-80
2022/12/30 05:30:08;;;;;;;6.07;1.23;;;6.10;99.90;;;;;;4169781;28;20484;-80
2022/12/30 05:32:10;;;;;;;5.17;1.30;;;6.10;99.90;;;;;;4156215;28;20519;-80
2022/12/30 05:34:12;;;;;;;8.43;1.07;;;6.10;99.90;;;;;;4184282;28;20813;-80
2022/12/30 05:36:14;;;;;;;8.70;1.17;;;6.00;99.90;;;;;;4164316;28;20543;-80
2022/12/30 05:38:16;;;;;;;8.20;1.43;;;6.00;99.90;;;;;;4179504;28;20474;-80
2022/12/30 05:40:20;;;;;;;3.73;1.00;;;6.00;99.90;;;;;;4174160;28;20976;-80
2022/12/30 05:42:22;;;;;;;5.07;0.97;;;6.00;99.90;;;;;;4177486;28;20509;-80
2022/12/30 05:44:25;;;;;;;8.33;1.07;;;6.00;99.90;;;;;;4180466;28;20466;-80
2022/12/30 05:46:27;;;;;;;4.67;1.00;;;6.00;99.90;;;;;;4156780;28;20453;-80
2022/12/30 05:48:29;;;;;;;9.13;1.27;;;6.00;99.90;;;;;;4153903;28;20511;-80
2022/12/30 05:50:32;;;;;;;4.43;1.67;;;5.90;99.90;;;;;;4162039;28;20510;-80
2022/12/30 05:52:33;;;;;;;3.10;1.23;;;5.90;99.90;;;;;;4170765;28;20514;-80
2022/12/30 05:54:35;;;;;;;7.83;1.80;;;5.60;99.90;;;;;;4170359;28;20483;-80
2022/12/30 05:56:37;;;;;;;14.13;1.73;;;5.90;99.90;;;;;;4175689;28;20553;-80
2022/12/30 05:58:39;;;;;;;5.67;1.00;;;5.90;99.90;;;;;;4169797;28;20521;-80
2022/12/30 06:00:42;;;;;;;3.53;1.10;;;5.80;99.90;;;;;;4177010;28;20522;-80
2022/12/30 06:02:44;;;;;;;5.13;0.97;;;5.80;99.90;;;;;;4175472;28;21021;-80
2022/12/30 06:04:46;;;;;;;6.80;1.40;;;5.80;99.90;;;;;;4159053;28;20489;-80
2022/12/30 06:06:48;;;;;;;6.37;1.20;;;5.80;99.90;;;;;;4173429;28;21039;-80
2022/12/30 06:08:50;;;;;;;6.97;1.10;;;5.70;99.90;;;;;;4174621;28;20489;-80
2022/12/30 06:10:52;;;;;;;8.73;1.37;;;5.70;99.90;;;;;;4174776;28;20463;-80
2022/12/30 06:12:54;;;;;;;11.97;1.00;;;6.10;99.90;;;;;;4170228;28;20478;-80
2022/12/30 06:14:56;;;;;;;6.60;1.70;;;5.70;99.90;;;;;;4154385;28;20825;-80
2022/12/30 06:16:59;;;;;;;8.70;1.63;;;5.70;99.90;;;;;;4182267;28;20455;-80
2022/12/30 06:19:01;;;;;;;10.83;1.40;;;5.60;99.90;;;;;;4177215;28;20486;-80
2022/12/30 06:21:04;;;;;;;4.80;1.30;;;5.70;99.90;;;;;;4165532;28;20913;-80
2022/12/30 06:23:06;;;;;;;8.43;1.20;;;5.60;99.90;;;;;;4182447;28;20553;-80
2022/12/30 06:25:08;;;;;;;6.80;1.73;;;5.60;99.90;;;;;;4183777;28;20447;-80
2022/12/30 06:27:10;;;;;;;7.27;1.50;;;5.60;99.90;;;;;;4155979;28;20487;-80
2022/12/30 06:29:12;;;;;;;5.00;1.30;;;5.60;99.90;;;;;;4181426;28;20511;-80
2022/12/30 06:31:14;;;;;;;8.53;1.37;;;5.50;99.90;;;;;;4175660;28;20500;-80
2022/12/30 06:33:18;;;;;;;7.00;1.70;;;5.50;99.90;;;;;;4176936;28;20474;-80
2022/12/30 06:35:20;;;;;;;8.17;2.03;;;5.40;99.90;;;;;;4165526;28;20500;-80
2022/12/30 06:37:22;;;;;;;8.17;1.70;;;5.50;99.90;;;;;;4180016;28;20538;-80
2022/12/30 06:39:24;;;;;;;5.13;1.30;;;5.40;99.90;;;;;;4180750;28;20672;-80
2022/12/30 06:41:26;;;;;;;8.37;1.30;;;5.40;99.90;;;;;;4162064;28;20483;-80
2022/12/30 06:43:29;;;;;;;11.60;1.63;;;5.40;99.90;;;;;;4182135;28;20492;-80
2022/12/30 06:45:31;;;;;;;6.50;1.13;;;5.40;99.90;;;;;;4180303;28;20453;-80
2022/12/30 06:47:33;;;;;;;3.80;1.10;;;5.30;99.90;;;;;;4174866;28;21020;-80
2022/12/30 06:49:36;;;;;;;6.67;1.10;;;5.30;99.90;;;;;;4168008;28;20482;-80
2022/12/30 06:51:38;;;;;;;6.67;1.50;;;5.30;99.90;;;;;;4152701;28;20454;-80
2022/12/30 06:53:40;;;;;;;4.17;1.20;;;5.30;99.90;;;;;;4159742;28;20482;-80
2022/12/30 06:55:41;;;;;;;4.50;1.40;;;5.30;99.90;;;;;;4175747;28;20522;-80
2022/12/30 06:57:44;;;;;;;12.57;4.87;;;5.30;99.90;;;;;;4162541;28;20497;-80
2022/12/30 06:59:46;;;;;;;12.33;4.50;;;5.20;99.90;;;;;;4173816;28;20509;-80
2022/12/30 07:01:48;;;;;;;10.27;2.20;;;5.20;99.90;;;;;;4176190;28;20489;-80
2022/12/30 07:03:50;;;;;;;9.67;1.80;;;5.20;99.90;;;;;;4177820;28;20617;-80
2022/12/30 07:05:53;;;;;;;4.60;1.63;;;5.10;99.90;;;;;;4176690;28;20444;-80
2022/12/30 07:07:55;;;;;;;7.67;1.30;;;5.10;99.90;;;;;;4159660;28;20464;-80
2022/12/30 07:09:57;;;;;;;10.50;3.63;;;5.10;99.90;;;;;;4173160;28;20466;-77
2022/12/30 07:11:59;;;;;;;3.73;1.60;;;5.10;99.90;;;;;;4158274;28;20479;-80
2022/12/30 07:14:00;;;;;;;5.97;1.90;;;5.10;99.90;;;;;;4165931;28;20536;-79
2022/12/30 07:16:02;;;;;;;7.53;2.00;;;5.10;99.90;;;;;;4174520;28;20464;-79
2022/12/30 07:18:04;;;;;;;4.57;1.30;;;5.10;99.90;;;;;;4160121;28;20907;-79
2022/12/30 07:20:07;;;;;;;7.17;1.20;;;5.10;99.90;;;;;;4169705;28;20458;-86
2022/12/30 07:22:10;;;;;;;6.30;1.27;;;5.10;99.90;;;;;;4175022;28;20447;-79
2022/12/30 07:24:13;;;;;;;4.77;1.47;;;5.10;99.90;;;;;;4176050;28;20576;-79
2022/12/30 07:26:14;;;;;;;8.70;1.33;;;5.10;99.90;;;;;;4158557;28;20466;-79
2022/12/30 07:28:16;;;;;;;4.73;1.20;;;5.10;99.90;;;;;;4163031;28;20487;-79
2022/12/30 07:30:18;;;;;;;6.97;1.67;;;5.10;99.90;;;;;;4173782;28;20493;-79
2022/12/30 07:32:20;;;;;;;6.03;1.00;;;5.10;99.90;;;;;;4177799;28;20507;-79
2022/12/30 07:34:22;;;;;;;4.10;1.20;;;5.10;99.90;;;;;;4157009;28;20450;-79
2022/12/30 07:36:25;;;;;;;5.23;0.87;;;5.10;99.90;;;;;;4173253;28;20485;-79
2022/12/30 07:38:30;;;;;;;6.93;1.23;;;5.10;99.90;;;;;;4156288;28;20557;-79
2022/12/30 07:40:31;;;;;;;3.80;1.10;;;5.10;99.90;;;;;;4163164;28;20902;-79
2022/12/30 07:42:33;;;;;;;4.73;1.00;;;5.10;99.90;;;;;;4178178;28;20453;-79
2022/12/30 07:44:37;;;;;;;5.37;1.40;;;5.10;99.90;;;;;;4161319;28;20455;-79
2022/12/30 07:46:39;;;;;;;6.40;1.30;;;5.10;99.90;;;;;;4174048;28;20473;-79
2022/12/30 07:48:41;;;;;;;4.70;1.37;;;5.10;99.90;;;;;;4173831;28;20492;-79
2022/12/30 07:50:42;;;;;;;3.20;1.27;;;5.10;99.90;;;;;;4175688;28;20496;-79
2022/12/30 07:52:44;;;;;;;9.13;1.70;;;5.20;99.90;;;;;;4175910;28;20451;-78
2022/12/30 07:54:48;;;;;;;7.33;1.37;;;5.20;99.90;;;;;;4179792;28;20454;-79
2022/12/30 07:56:50;;;;;;;5.53;1.33;;;5.20;99.90;;;;;;4178659;28;20465;-79
2022/12/30 07:58:53;;;;;;;3.53;1.20;;;5.20;99.90;;;;;;4162418;28;21052;-79
2022/12/30 08:00:57;;;;;;;7.27;1.70;;;5.10;99.90;;;;;;4178835;28;20458;-78
2022/12/30 08:02:59;;;;;;;6.20;1.37;;;5.10;99.90;;;;;;4176544;28;20585;-78
2022/12/30 08:05:01;;;;;;;10.93;2.50;;;5.20;99.90;;;;;;4172767;28;20452;-79
2022/12/30 08:07:03;;;;;;;9.70;2.30;;;5.30;99.90;;;;;;4161825;28;20890;-79
2022/12/30 08:09:05;;;;;;;11.40;3.23;;;5.20;99.90;;;;;;4175397;28;20469;-79
2022/12/30 08:11:10;;;;;;;9.90;3.00;;;5.70;99.90;;;;;;4178536;28;20460;-79
2022/12/30 08:13:12;;;;;;;5.33;1.63;;;5.20;99.90;;;;;;4172293;28;20560;-82
2022/12/30 08:15:14;;;;;;;4.43;1.43;;;5.20;99.90;;;;;;4178155;28;20488;-79
2022/12/30 08:17:16;;;;;;;5.37;1.40;;;5.20;99.90;;;;;;4178800;28;20501;-79
2022/12/30 08:19:17;;;;;;;6.77;1.40;;;5.20;99.90;;;;;;4175129;28;20504;-79
2022/12/30 08:21:20;;;;;;;13.00;2.03;;;5.20;99.90;;;;;;4161979;28;20502;-79
2022/12/30 08:23:21;;;;;;;7.50;1.90;;;5.20;99.90;;;;;;4173403;28;20487;-79
2022/12/30 08:25:23;;;;;;;8.87;1.70;;;5.20;99.90;;;;;;4167619;28;20459;-79
2022/12/30 08:27:27;;;;;;;7.87;1.30;;;5.20;99.90;;;;;;4162164;28;20456;-79
2022/12/30 08:29:29;;;;;;;7.53;1.67;;;5.20;99.90;;;;;;4170340;28;20477;-79
2022/12/30 08:31:31;;;;;;;8.50;1.67;;;5.20;99.90;;;;;;4154116;28;20497;-79
2022/12/30 08:33:33;;;;;;;9.00;1.87;;;5.30;99.90;;;;;;4173009;28;20528;-79
2022/12/30 08:35:34;;;;;;;7.07;1.40;;;5.30;99.90;;;;;;4166628;28;20455;-79
2022/12/30 08:37:36;;;;;;;7.10;1.27;;;5.40;99.90;;;;;;4168420;28;20454;-79
2022/12/30 08:39:38;;;;;;;7.47;1.67;;;5.40;99.90;;;;;;4175753;28;20475;-79
2022/12/30 08:41:42;;;;;;;5.47;1.50;;;5.50;99.90;;;;;;4173910;28;20459;-79
2022/12/30 08:43:46;;;;;;;6.97;1.37;;;5.50;99.90;;;;;;4172275;28;20535;-79
2022/12/30 08:45:56;;;;;;;8.43;1.30;;;5.60;99.90;;;;;;4170547;28;20486;-79
2022/12/30 08:47:58;;;;;;;2.23;1.10;;;5.70;99.90;;;;;;4168767;28;20541;-79
2022/12/30 08:50:00;;;;;;;7.83;1.63;;;5.70;99.90;;;;;;4175127;28;20463;-79
2022/12/30 08:52:03;;;;;;;18.23;1.63;;;5.70;99.90;;;;;;4174952;28;20489;-79
2022/12/30 08:54:05;;;;;;;4.00;1.17;;;5.80;99.90;;;;;;4160441;28;20473;-79
2022/12/30 08:56:08;;;;;;;6.13;1.17;;;5.80;99.90;;;;;;4175106;28;20458;-79
2022/12/30 08:58:10;;;;;;;5.97;1.27;;;5.90;99.90;;;;;;4170612;28;20472;-79
2022/12/30 09:00:15;;;;;;;7.97;1.83;;;5.90;99.90;;;;;;4162876;28;20510;-78
2022/12/30 09:02:17;;;;;;;4.10;1.57;;;5.90;99.90;;;;;;4178526;28;20518;-86
2022/12/30 09:04:18;;;;;;;4.90;1.60;;;6.00;99.90;;;;;;4175568;28;20499;-79
2022/12/30 09:06:22;;;;;;;4.27;1.33;;;6.00;99.90;;;;;;4181503;28;20461;-80
2022/12/30 09:08:24;;;;;;;5.33;1.20;;;6.00;99.90;;;;;;4180318;28;20473;-80
2022/12/30 09:10:27;;;;;;;10.33;1.43;;;6.00;99.90;;;;;;4169724;28;20513;-79
2022/12/30 09:12:29;;;;;;;5.93;1.40;;;6.10;99.90;;;;;;4176861;28;20445;-80
2022/12/30 09:14:31;;;;;;;6.87;1.80;;;6.10;99.90;;;;;;4174171;28;20447;-80
2022/12/30 09:16:35;;;;;;;4.90;1.33;;;6.20;99.90;;;;;;4175597;28;20451;-80
2022/12/30 09:18:37;;;;;;;6.73;1.73;;;6.20;99.90;;;;;;4175588;28;20477;-79
2022/12/30 09:20:39;;;;;;;7.30;1.47;;;6.20;99.90;;;;;;4176731;28;21051;-80
2022/12/30 09:22:40;;;;;;;6.83;1.40;;;6.50;99.90;;;;;;4164841;28;20463;-81
2022/12/30 09:24:42;;;;;;;6.30;1.50;;;6.30;99.90;;;;;;4162541;28;20566;-79
2022/12/30 09:26:45;;;;;;;6.90;1.30;;;6.30;99.90;;;;;;4162766;28;20452;-79
2022/12/30 09:28:48;;;;;;;8.73;1.10;;;6.30;99.90;;;;;;4157708;28;20483;-80
2022/12/30 09:30:53;;;;;;;6.30;1.20;;;6.40;99.90;;;;;;4176605;28;20452;-80
2022/12/30 09:32:56;;;;;;;6.77;1.43;;;6.40;99.90;;;;;;4171821;28;20460;-79
2022/12/30 09:34:58;;;;;;;9.70;1.93;;;6.40;99.90;;;;;;4162967;28;20507;-80
2022/12/30 09:37:00;;;;;;;7.40;1.30;;;6.40;99.90;;;;;;4152661;28;20456;-80
2022/12/30 09:39:02;;;;;;;5.77;1.67;;;6.50;99.90;;;;;;4162118;28;20512;-80
2022/12/30 09:41:08;;;;;;;11.07;1.73;;;6.50;99.90;;;;;;4165270;28;20460;-81
2022/12/30 09:43:17;;;;;;;8.97;2.10;;;6.60;99.90;;;;;;4165787;28;20519;-80
2022/12/30 09:45:26;;;;;;;6.37;1.40;;;6.60;99.90;;;;;;4161247;28;20539;-79
2022/12/30 09:47:31;;;;;;;5.27;1.17;;;6.60;99.90;;;;;;4165168;28;20496;-81
2022/12/30 09:49:40;;;;;;;10.07;1.63;;;6.70;99.90;;;;;;4175315;28;20529;-86
2022/12/30 09:51:47;;;;;;;7.70;1.50;;;6.70;99.90;;;;;;4160945;28;20458;-80
2022/12/30 09:53:53;;;;;;;7.80;1.70;;;6.80;99.90;;;;;;4174103;28;20545;-81
2022/12/30 09:55:58;;;;;;;5.70;1.37;;;6.80;99.90;;;;;;4177062;28;20470;-79
2022/12/30 09:58:04;;;;;;;5.67;1.90;;;6.90;99.90;;;;;;4176232;28;20462;-85
2022/12/30 10:00:13;;;;;;;6.17;1.20;;;6.90;99.90;;;;;;4174820;28;21189;-79
2022/12/30 10:02:21;;;;;;;5.83;1.70;;;7.00;99.90;;;;;;4174319;28;20925;-80
2022/12/30 10:04:31;;;;;;;5.77;1.50;;;7.00;99.90;;;;;;4172495;28;20994;-81
2022/12/30 10:06:39;;;;;;;6.87;1.57;;;7.00;99.90;;;;;;4159437;28;20476;-81
2022/12/30 10:09:15;;;;;;;9.53;1.40;;;7.10;99.90;;;;;;4175617;28;20518;-82
2022/12/30 10:11:27;;;;;;;5.07;1.63;;;7.10;99.90;;;;;;4158200;28;20505;-84
2022/12/30 10:13:35;;;;;;;6.87;1.60;;;7.10;99.90;;;;;;4157124;28;20459;-81
2022/12/30 10:15:53;;;;;;;9.17;1.60;;;7.30;99.90;;;;;;4154943;28;20512;-82
2022/12/30 10:18:13;;;;;;;9.17;1.80;;;7.30;99.90;;;;;;4177582;28;20798;-82
2022/12/30 10:20:25;;;;;;;8.30;1.87;;;7.40;99.90;;;;;;4182598;28;20452;-78
2022/12/30 10:22:38;;;;;;;7.70;1.40;;;7.40;99.90;;;;;;4175782;28;20447;-79
2022/12/30 10:24:52;;;;;;;7.73;1.33;;;7.50;99.90;;;;;;4177956;28;20486;-80
2022/12/30 10:26:57;;;;;;;3.93;1.50;;;7.60;99.90;;;;;;4178132;28;20445;-79
2022/12/30 10:29:01;;;;;;;6.10;1.70;;;7.60;99.90;;;;;;4159399;28;20538;-79
2022/12/30 10:31:07;;;;;;;6.73;1.43;;;7.70;99.90;;;;;;4171735;28;20876;-77
2022/12/30 10:33:16;;;;;;;5.33;1.17;;;7.70;99.90;;;;;;4176196;28;20467;-78
2022/12/30 10:35:22;;;;;;;3.73;1.20;;;7.80;99.90;;;;;;4154562;28;20454;-79
2022/12/30 10:37:33;;;;;;;6.10;1.23;;;7.90;99.90;;;;;;4177650;28;20463;-79
2022/12/30 10:39:38;;;;;;;5.10;1.63;;;7.90;99.90;;;;;;4154979;28;20527;-79
2022/12/30 10:41:51;;;;;;;9.03;1.73;;;8.00;99.90;;;;;;4161533;28;20485;-79
2022/12/30 10:44:04;;;;;;;10.00;1.70;;;8.00;99.90;;;;;;4171314;28;20469;-79
2022/12/30 10:46:19;;;;;;;6.80;1.47;;;8.10;99.90;;;;;;4169590;28;20464;-82
2022/12/30 10:48:45;;;;;;;7.33;1.50;;;8.10;99.90;;;;;;4150246;28;20950;-79
2022/12/30 10:50:49;;;;;;;6.00;1.57;;;8.20;99.90;;;;;;4174145;28;20504;-78
2022/12/30 10:52:53;;;;;;;5.80;1.70;;;8.30;99.90;;;;;;4177024;28;20452;-79
2022/12/30 10:54:55;;;;;;;8.23;1.73;;;8.30;99.90;;;;;;4154249;28;20211;-77
2022/12/30 10:56:57;;;;;;;6.30;1.53;;;8.30;99.90;;;;;;4173344;28;20490;-75
2022/12/30 10:59:01;;;;;;;8.40;1.53;;;8.30;99.90;;;;;;4174297;28;20481;-77
2022/12/30 11:01:03;;;;;;;11.17;1.93;;;8.40;99.90;;;;;;4167615;28;20511;-77
2022/12/30 11:03:16;;;;;;;4.13;1.40;;;8.40;99.90;;;;;;4153879;28;20658;-77
2022/12/30 11:05:30;;;;;;;5.47;1.60;;;8.50;99.90;;;;;;4150326;28;20593;-78
2022/12/30 11:07:32;;;;;;;6.57;1.60;;;8.50;99.90;;;;;;4169900;28;20242;-82
2022/12/30 11:09:35;;;;;;;6.37;1.20;;;8.60;99.90;;;;;;4170305;28;20590;-79
2022/12/30 11:16:41;;;;;;;7.37;1.33;;;8.80;99.90;;;;;;4149107;28;20250;-79
2022/12/30 11:18:45;;;;;;;8.13;1.70;;;8.80;99.90;;;;;;4160218;28;20473;-81
2022/12/30 11:20:53;;;;;;;9.57;1.70;;;9.00;99.90;;;;;;4173943;28;20211;-78
2022/12/30 11:22:58;;;;;;;5.50;1.60;;;9.00;99.90;;;;;;4175423;28;20229;-77
2022/12/30 11:25:04;;;;;;;7.07;1.43;;;9.10;99.90;;;;;;4172627;28;20209;-76
2022/12/30 11:27:06;;;;;;;8.47;1.60;;;9.10;99.90;;;;;;4176670;28;20212;-77
2022/12/30 11:29:14;;;;;;;6.57;1.73;;;9.20;99.90;;;;;;4153531;28;20238;-77
2022/12/30 11:31:18;;;;;;;4.87;1.37;;;9.20;99.90;;;;;;4173446;28;20210;-77
2022/12/30 11:33:24;;;;;;;7.93;1.47;;;9.20;99.90;;;;;;4170388;28;20728;-78
2022/12/30 11:35:36;;;;;;;10.80;1.83;;;9.30;99.90;;;;;;4155449;28;20215;-77
2022/12/30 11:37:38;;;;;;;7.77;1.77;;;9.30;99.90;;;;;;4158130;28;20203;-77
2022/12/30 11:39:40;;;;;;;8.97;1.90;;;9.40;99.90;;;;;;4168428;28;20735;-77
2022/12/30 11:41:49;;;;;;;7.63;1.57;;;9.40;99.90;;;;;;4172479;28;20280;-78
2022/12/30 11:44:05;;;;;;;7.93;1.50;;;9.50;99.90;;;;;;4171815;28;20271;-77
2022/12/30 11:46:11;;;;;;;8.93;1.80;;;9.50;99.90;;;;;;4172208;28;20558;-77
2022/12/30 11:48:22;;;;;;;4.40;1.50;;;9.60;99.90;;;;;;4169740;28;20237;-77
2022/12/30 11:50:24;;;;;;;5.23;1.50;;;9.70;99.90;;;;;;4175523;28;20209;-77